sensor_id;sensor_type;location;lat;lon;timestamp;P1;durP1;ratioP1;P2;durP2;ratioP2
7432;SDS011;32233;49.500;7.764;2023-04-25T00:00:48;16.20;;;10.33;;
7432;SDS011;32233;49.500;7.764;2023-04-25T00:03:15;16.87;;;11.10;;
7432;SDS011;32233;49.500;7.764;2023-04-25T00:05:42;16.03;;;10.57;;
7432;SDS011;32233;49.500;7.764;2023-04-25T00:08:09;16.43;;;11.40;;
7432;SDS011;32233;49.500;7.764;2023-04-25T00:10:36;15.73;;;11.33;;
7432;SDS011;32233;49.500;7.764;2023-04-25T00:13:02;14.90;;;11.20;;
7432;SDS011;32233;49.500;7.764;2023-04-25T00:15:29;16.10;;;11.47;;
7432;SDS011;32233;49.500;7.764;2023-04-25T00:17:58;16.77;;;11.63;;
7432;SDS011;32233;49.500;7.764;2023-04-25T00:20:25;17.50;;;11.47;;
7432;SDS011;32233;49.500;7.764;2023-04-25T00:22:51;18.90;;;11.57;;
7432;SDS011;32233;49.500;7.764;2023-04-25T00:25:19;17.30;;;12.43;;
7432;SDS011;32233;49.500;7.764;2023-04-25T00:27:46;20.20;;;13.20;;
7432;SDS011;32233;49.500;7.764;2023-04-25T00:30:12;19.57;;;12.60;;
7432;SDS011;32233;49.500;7.764;2023-04-25T00:32:40;19.17;;;12.93;;
7432;SDS011;32233;49.500;7.764;2023-04-25T00:35:07;20.80;;;13.50;;
7432;SDS011;32233;49.500;7.764;2023-04-25T00:37:34;20.77;;;13.73;;
7432;SDS011;32233;49.500;7.764;2023-04-25T00:40:00;22.13;;;13.77;;
7432;SDS011;32233;49.500;7.764;2023-04-25T00:42:27;21.23;;;13.77;;
7432;SDS011;32233;49.500;7.764;2023-04-25T00:44:54;21.97;;;14.50;;
7432;SDS011;32233;49.500;7.764;2023-04-25T00:47:21;20.13;;;13.57;;
7432;SDS011;32233;49.500;7.764;2023-04-25T00:49:49;21.43;;;13.80;;
7432;SDS011;32233;49.500;7.764;2023-04-25T00:52:16;18.93;;;14.10;;
7432;SDS011;32233;49.500;7.764;2023-04-25T00:54:43;23.17;;;13.50;;
7432;SDS011;32233;49.500;7.764;2023-04-25T00:57:10;21.87;;;14.23;;
7432;SDS011;32233;49.500;7.764;2023-04-25T00:59:37;19.90;;;13.43;;
7432;SDS011;32233;49.500;7.764;2023-04-25T01:02:04;20.30;;;13.90;;
7432;SDS011;32233;49.500;7.764;2023-04-25T01:04:31;21.80;;;14.50;;
7432;SDS011;32233;49.500;7.764;2023-04-25T01:06:57;24.37;;;14.63;;
7432;SDS011;32233;49.500;7.764;2023-04-25T01:09:24;21.50;;;14.17;;
7432;SDS011;32233;49.500;7.764;2023-04-25T01:11:50;22.10;;;14.13;;
7432;SDS011;32233;49.500;7.764;2023-04-25T01:14:17;21.43;;;13.83;;
7432;SDS011;32233;49.500;7.764;2023-04-25T01:16:44;19.97;;;13.20;;
7432;SDS011;32233;49.500;7.764;2023-04-25T01:19:11;20.23;;;13.83;;
7432;SDS011;32233;49.500;7.764;2023-04-25T01:21:38;20.37;;;13.47;;
7432;SDS011;32233;49.500;7.764;2023-04-25T01:24:06;20.47;;;13.53;;
7432;SDS011;32233;49.500;7.764;2023-04-25T01:26:32;19.30;;;12.70;;
7432;SDS011;32233;49.500;7.764;2023-04-25T01:29:00;20.27;;;13.17;;
7432;SDS011;32233;49.500;7.764;2023-04-25T01:31:27;21.43;;;13.13;;
7432;SDS011;32233;49.500;7.764;2023-04-25T01:33:54;19.57;;;13.73;;
7432;SDS011;32233;49.500;7.764;2023-04-25T01:36:21;18.23;;;13.30;;
7432;SDS011;32233;49.500;7.764;2023-04-25T01:38:48;17.93;;;12.90;;
7432;SDS011;32233;49.500;7.764;2023-04-25T01:41:15;23.53;;;13.87;;
7432;SDS011;32233;49.500;7.764;2023-04-25T01:43:43;19.10;;;13.30;;
7432;SDS011;32233;49.500;7.764;2023-04-25T01:46:11;20.47;;;12.90;;
7432;SDS011;32233;49.500;7.764;2023-04-25T01:48:38;22.53;;;13.53;;
7432;SDS011;32233;49.500;7.764;2023-04-25T01:51:05;19.30;;;13.60;;
7432;SDS011;32233;49.500;7.764;2023-04-25T01:53:32;20.83;;;13.60;;
7432;SDS011;32233;49.500;7.764;2023-04-25T01:56:01;21.37;;;14.07;;
7432;SDS011;32233;49.500;7.764;2023-04-25T01:58:32;20.70;;;13.70;;
7432;SDS011;32233;49.500;7.764;2023-04-25T02:01:01;23.47;;;14.90;;
7432;SDS011;32233;49.500;7.764;2023-04-25T02:03:36;20.80;;;13.73;;
7432;SDS011;32233;49.500;7.764;2023-04-25T02:06:06;19.60;;;13.47;;
7432;SDS011;32233;49.500;7.764;2023-04-25T02:08:37;21.03;;;13.60;;
7432;SDS011;32233;49.500;7.764;2023-04-25T02:11:03;21.23;;;13.50;;
7432;SDS011;32233;49.500;7.764;2023-04-25T02:13:37;18.70;;;13.10;;
7432;SDS011;32233;49.500;7.764;2023-04-25T02:16:33;19.33;;;13.50;;
7432;SDS011;32233;49.500;7.764;2023-04-25T02:19:02;21.83;;;14.10;;
7432;SDS011;32233;49.500;7.764;2023-04-25T02:21:29;20.97;;;14.33;;
7432;SDS011;32233;49.500;7.764;2023-04-25T02:23:57;22.67;;;13.97;;
7432;SDS011;32233;49.500;7.764;2023-04-25T02:26:24;23.53;;;14.00;;
7432;SDS011;32233;49.500;7.764;2023-04-25T02:28:50;23.20;;;14.43;;
7432;SDS011;32233;49.500;7.764;2023-04-25T02:31:18;21.87;;;14.03;;
7432;SDS011;32233;49.500;7.764;2023-04-25T02:33:45;20.20;;;13.13;;
7432;SDS011;32233;49.500;7.764;2023-04-25T02:36:12;20.87;;;13.50;;
7432;SDS011;32233;49.500;7.764;2023-04-25T02:38:40;19.50;;;13.37;;
7432;SDS011;32233;49.500;7.764;2023-04-25T02:41:07;24.37;;;13.67;;
7432;SDS011;32233;49.500;7.764;2023-04-25T02:43:33;20.23;;;13.40;;
7432;SDS011;32233;49.500;7.764;2023-04-25T02:46:00;20.07;;;13.63;;
7432;SDS011;32233;49.500;7.764;2023-04-25T02:48:26;19.70;;;13.07;;
7432;SDS011;32233;49.500;7.764;2023-04-25T02:50:53;20.00;;;13.90;;
7432;SDS011;32233;49.500;7.764;2023-04-25T02:53:20;20.07;;;13.13;;
7432;SDS011;32233;49.500;7.764;2023-04-25T02:55:50;21.90;;;13.33;;
7432;SDS011;32233;49.500;7.764;2023-04-25T02:58:18;20.43;;;13.07;;
7432;SDS011;32233;49.500;7.764;2023-04-25T03:00:48;19.70;;;13.03;;
7432;SDS011;32233;49.500;7.764;2023-04-25T03:03:15;21.20;;;12.73;;
7432;SDS011;32233;49.500;7.764;2023-04-25T03:05:44;18.27;;;12.13;;
7432;SDS011;32233;49.500;7.764;2023-04-25T03:08:13;18.73;;;12.23;;
7432;SDS011;32233;49.500;7.764;2023-04-25T03:10:39;19.43;;;12.87;;
7432;SDS011;32233;49.500;7.764;2023-04-25T03:13:08;20.13;;;12.20;;
7432;SDS011;32233;49.500;7.764;2023-04-25T03:15:35;19.73;;;13.03;;
7432;SDS011;32233;49.500;7.764;2023-04-25T03:18:02;19.13;;;12.70;;
7432;SDS011;32233;49.500;7.764;2023-04-25T03:20:29;18.70;;;12.90;;
7432;SDS011;32233;49.500;7.764;2023-04-25T03:22:56;20.13;;;12.93;;
7432;SDS011;32233;49.500;7.764;2023-04-25T03:25:23;24.97;;;13.57;;
7432;SDS011;32233;49.500;7.764;2023-04-25T03:27:49;19.70;;;13.60;;
7432;SDS011;32233;49.500;7.764;2023-04-25T03:30:16;22.03;;;13.67;;
7432;SDS011;32233;49.500;7.764;2023-04-25T03:32:43;22.20;;;14.20;;
7432;SDS011;32233;49.500;7.764;2023-04-25T03:35:14;18.83;;;12.43;;
7432;SDS011;32233;49.500;7.764;2023-04-25T03:37:41;21.07;;;13.73;;
7432;SDS011;32233;49.500;7.764;2023-04-25T03:40:15;22.73;;;15.13;;
7432;SDS011;32233;49.500;7.764;2023-04-25T03:43:07;21.83;;;14.33;;
7432;SDS011;32233;49.500;7.764;2023-04-25T03:45:34;22.57;;;14.23;;
7432;SDS011;32233;49.500;7.764;2023-04-25T03:48:01;23.17;;;15.07;;
7432;SDS011;32233;49.500;7.764;2023-04-25T03:50:29;22.47;;;14.83;;
7432;SDS011;32233;49.500;7.764;2023-04-25T03:52:56;23.13;;;14.67;;
7432;SDS011;32233;49.500;7.764;2023-04-25T03:55:26;20.67;;;14.03;;
7432;SDS011;32233;49.500;7.764;2023-04-25T03:57:53;22.40;;;14.70;;
7432;SDS011;32233;49.500;7.764;2023-04-25T04:00:20;24.27;;;14.27;;
7432;SDS011;32233;49.500;7.764;2023-04-25T04:02:50;22.43;;;14.93;;
7432;SDS011;32233;49.500;7.764;2023-04-25T04:05:17;20.93;;;14.10;;
7432;SDS011;32233;49.500;7.764;2023-04-25T04:07:50;25.60;;;14.83;;
7432;SDS011;32233;49.500;7.764;2023-04-25T04:10:17;20.30;;;13.53;;
7432;SDS011;32233;49.500;7.764;2023-04-25T04:12:43;20.63;;;13.90;;
7432;SDS011;32233;49.500;7.764;2023-04-25T04:15:10;19.50;;;13.53;;
7432;SDS011;32233;49.500;7.764;2023-04-25T04:17:38;21.67;;;14.80;;
7432;SDS011;32233;49.500;7.764;2023-04-25T04:20:06;23.53;;;14.40;;
7432;SDS011;32233;49.500;7.764;2023-04-25T04:22:34;19.57;;;13.37;;
7432;SDS011;32233;49.500;7.764;2023-04-25T04:25:06;18.83;;;12.93;;
7432;SDS011;32233;49.500;7.764;2023-04-25T04:27:51;19.80;;;12.70;;
7432;SDS011;32233;49.500;7.764;2023-04-25T04:30:41;20.27;;;13.63;;
7432;SDS011;32233;49.500;7.764;2023-04-25T04:33:08;19.20;;;13.43;;
7432;SDS011;32233;49.500;7.764;2023-04-25T04:35:36;20.80;;;13.53;;
7432;SDS011;32233;49.500;7.764;2023-04-25T04:38:02;21.87;;;13.90;;
7432;SDS011;32233;49.500;7.764;2023-04-25T04:40:33;20.73;;;12.93;;
7432;SDS011;32233;49.500;7.764;2023-04-25T04:43:11;16.47;;;12.33;;
7432;SDS011;32233;49.500;7.764;2023-04-25T04:45:50;19.23;;;12.80;;
7432;SDS011;32233;49.500;7.764;2023-04-25T04:48:19;18.13;;;12.57;;
7432;SDS011;32233;49.500;7.764;2023-04-25T04:51:15;18.23;;;11.73;;
7432;SDS011;32233;49.500;7.764;2023-04-25T04:53:53;17.93;;;12.70;;
7432;SDS011;32233;49.500;7.764;2023-04-25T04:56:37;16.57;;;11.70;;
7432;SDS011;32233;49.500;7.764;2023-04-25T04:59:27;19.23;;;13.03;;
7432;SDS011;32233;49.500;7.764;2023-04-25T05:02:04;17.53;;;12.73;;
7432;SDS011;32233;49.500;7.764;2023-04-25T05:04:49;16.90;;;12.40;;
7432;SDS011;32233;49.500;7.764;2023-04-25T05:07:34;19.27;;;12.37;;
7432;SDS011;32233;49.500;7.764;2023-04-25T05:10:20;21.07;;;13.43;;
7432;SDS011;32233;49.500;7.764;2023-04-25T05:12:55;18.23;;;12.23;;
7432;SDS011;32233;49.500;7.764;2023-04-25T05:15:40;19.57;;;13.53;;
7432;SDS011;32233;49.500;7.764;2023-04-25T05:18:21;19.60;;;12.77;;
7432;SDS011;32233;49.500;7.764;2023-04-25T05:21:02;16.83;;;12.70;;
7432;SDS011;32233;49.500;7.764;2023-04-25T05:23:58;21.83;;;13.17;;
7432;SDS011;32233;49.500;7.764;2023-04-25T05:26:44;20.57;;;13.60;;
7432;SDS011;32233;49.500;7.764;2023-04-25T05:29:25;24.40;;;14.87;;
7432;SDS011;32233;49.500;7.764;2023-04-25T05:32:16;23.00;;;14.77;;
7432;SDS011;32233;49.500;7.764;2023-04-25T05:34:46;24.97;;;15.13;;
7432;SDS011;32233;49.500;7.764;2023-04-25T05:37:24;22.43;;;14.57;;
7432;SDS011;32233;49.500;7.764;2023-04-25T05:39:54;24.00;;;16.00;;
7432;SDS011;32233;49.500;7.764;2023-04-25T05:42:45;26.00;;;16.30;;
7432;SDS011;32233;49.500;7.764;2023-04-25T05:45:18;24.03;;;15.37;;
7432;SDS011;32233;49.500;7.764;2023-04-25T05:47:54;24.27;;;15.57;;
7432;SDS011;32233;49.500;7.764;2023-04-25T05:50:31;24.30;;;15.40;;
7432;SDS011;32233;49.500;7.764;2023-04-25T05:53:02;25.90;;;15.77;;
7432;SDS011;32233;49.500;7.764;2023-04-25T05:55:31;24.90;;;16.67;;
7432;SDS011;32233;49.500;7.764;2023-04-25T05:58:00;26.13;;;16.83;;
7432;SDS011;32233;49.500;7.764;2023-04-25T06:00:27;23.13;;;15.93;;
7432;SDS011;32233;49.500;7.764;2023-04-25T06:02:53;25.23;;;16.47;;
7432;SDS011;32233;49.500;7.764;2023-04-25T06:05:20;22.47;;;15.10;;
7432;SDS011;32233;49.500;7.764;2023-04-25T06:07:47;23.30;;;15.13;;
7432;SDS011;32233;49.500;7.764;2023-04-25T06:10:14;23.13;;;14.63;;
7432;SDS011;32233;49.500;7.764;2023-04-25T06:12:41;26.93;;;16.70;;
7432;SDS011;32233;49.500;7.764;2023-04-25T06:15:08;25.33;;;16.07;;
7432;SDS011;32233;49.500;7.764;2023-04-25T06:17:52;22.30;;;14.03;;
7432;SDS011;32233;49.500;7.764;2023-04-25T06:20:19;20.77;;;14.10;;
7432;SDS011;32233;49.500;7.764;2023-04-25T06:22:50;21.73;;;14.97;;
7432;SDS011;32233;49.500;7.764;2023-04-25T06:25:19;21.93;;;14.03;;
7432;SDS011;32233;49.500;7.764;2023-04-25T06:27:46;22.07;;;14.67;;
7432;SDS011;32233;49.500;7.764;2023-04-25T06:30:13;20.30;;;14.17;;
7432;SDS011;32233;49.500;7.764;2023-04-25T06:32:39;22.23;;;13.90;;
7432;SDS011;32233;49.500;7.764;2023-04-25T06:35:06;20.13;;;13.13;;
7432;SDS011;32233;49.500;7.764;2023-04-25T06:37:34;20.77;;;13.20;;
7432;SDS011;32233;49.500;7.764;2023-04-25T06:40:01;18.13;;;12.47;;
7432;SDS011;32233;49.500;7.764;2023-04-25T06:42:28;18.27;;;12.87;;
7432;SDS011;32233;49.500;7.764;2023-04-25T06:44:57;22.13;;;14.37;;
7432;SDS011;32233;49.500;7.764;2023-04-25T06:47:24;20.73;;;13.93;;
7432;SDS011;32233;49.500;7.764;2023-04-25T06:49:50;20.73;;;14.80;;
7432;SDS011;32233;49.500;7.764;2023-04-25T06:52:18;20.37;;;13.77;;
7432;SDS011;32233;49.500;7.764;2023-04-25T06:54:46;19.87;;;12.60;;
7432;SDS011;32233;49.500;7.764;2023-04-25T06:57:24;16.80;;;12.50;;
7432;SDS011;32233;49.500;7.764;2023-04-25T06:59:50;15.67;;;11.50;;
7432;SDS011;32233;49.500;7.764;2023-04-25T07:02:17;15.33;;;10.83;;
7432;SDS011;32233;49.500;7.764;2023-04-25T07:04:44;14.53;;;11.00;;
7432;SDS011;32233;49.500;7.764;2023-04-25T07:07:12;14.53;;;10.87;;
7432;SDS011;32233;49.500;7.764;2023-04-25T07:09:45;15.43;;;10.73;;
7432;SDS011;32233;49.500;7.764;2023-04-25T07:12:12;14.17;;;10.90;;
7432;SDS011;32233;49.500;7.764;2023-04-25T07:14:38;14.77;;;11.30;;
7432;SDS011;32233;49.500;7.764;2023-04-25T07:17:06;14.23;;;10.83;;
7432;SDS011;32233;49.500;7.764;2023-04-25T07:19:34;14.13;;;11.13;;
7432;SDS011;32233;49.500;7.764;2023-04-25T07:22:01;14.70;;;10.93;;
7432;SDS011;32233;49.500;7.764;2023-04-25T07:24:30;15.47;;;10.83;;
7432;SDS011;32233;49.500;7.764;2023-04-25T07:26:58;12.70;;;10.23;;
7432;SDS011;32233;49.500;7.764;2023-04-25T07:29:30;16.60;;;11.67;;
7432;SDS011;32233;49.500;7.764;2023-04-25T07:31:59;14.60;;;10.70;;
7432;SDS011;32233;49.500;7.764;2023-04-25T07:34:25;13.93;;;10.97;;
7432;SDS011;32233;49.500;7.764;2023-04-25T07:36:52;16.30;;;11.93;;
7432;SDS011;32233;49.500;7.764;2023-04-25T07:39:21;16.63;;;10.67;;
7432;SDS011;32233;49.500;7.764;2023-04-25T07:41:49;19.53;;;9.97;;
7432;SDS011;32233;49.500;7.764;2023-04-25T07:44:23;16.60;;;10.20;;
7432;SDS011;32233;49.500;7.764;2023-04-25T07:46:50;16.73;;;10.30;;
7432;SDS011;32233;49.500;7.764;2023-04-25T07:49:17;16.93;;;10.20;;
7432;SDS011;32233;49.500;7.764;2023-04-25T07:51:44;15.77;;;10.53;;
7432;SDS011;32233;49.500;7.764;2023-04-25T07:54:14;20.73;;;11.57;;
7432;SDS011;32233;49.500;7.764;2023-04-25T07:56:46;19.00;;;10.07;;
7432;SDS011;32233;49.500;7.764;2023-04-25T07:59:21;18.37;;;10.87;;
7432;SDS011;32233;49.500;7.764;2023-04-25T08:01:48;16.70;;;10.47;;
7432;SDS011;32233;49.500;7.764;2023-04-25T08:04:16;19.87;;;10.63;;
7432;SDS011;32233;49.500;7.764;2023-04-25T08:06:52;16.07;;;9.90;;
7432;SDS011;32233;49.500;7.764;2023-04-25T08:09:24;14.80;;;9.70;;
7432;SDS011;32233;49.500;7.764;2023-04-25T08:11:52;18.83;;;10.73;;
7432;SDS011;32233;49.500;7.764;2023-04-25T08:14:24;18.67;;;10.10;;
7432;SDS011;32233;49.500;7.764;2023-04-25T08:16:51;19.20;;;10.13;;
7432;SDS011;32233;49.500;7.764;2023-04-25T08:19:19;21.60;;;11.33;;
7432;SDS011;32233;49.500;7.764;2023-04-25T08:21:46;20.10;;;11.10;;
7432;SDS011;32233;49.500;7.764;2023-04-25T08:24:17;19.90;;;9.97;;
7432;SDS011;32233;49.500;7.764;2023-04-25T08:26:44;17.17;;;11.00;;
7432;SDS011;32233;49.500;7.764;2023-04-25T08:29:15;18.73;;;10.83;;
7432;SDS011;32233;49.500;7.764;2023-04-25T08:31:41;19.77;;;11.30;;
7432;SDS011;32233;49.500;7.764;2023-04-25T08:34:08;17.03;;;10.63;;
7432;SDS011;32233;49.500;7.764;2023-04-25T08:36:44;19.13;;;10.97;;
7432;SDS011;32233;49.500;7.764;2023-04-25T08:39:40;17.57;;;10.13;;
7432;SDS011;32233;49.500;7.764;2023-04-25T08:42:14;18.03;;;10.27;;
7432;SDS011;32233;49.500;7.764;2023-04-25T08:44:41;17.57;;;10.47;;
7432;SDS011;32233;49.500;7.764;2023-04-25T08:47:08;17.73;;;11.07;;
7432;SDS011;32233;49.500;7.764;2023-04-25T08:49:43;20.33;;;10.07;;
7432;SDS011;32233;49.500;7.764;2023-04-25T08:52:13;19.40;;;10.67;;
7432;SDS011;32233;49.500;7.764;2023-04-25T08:54:44;18.53;;;10.30;;
7432;SDS011;32233;49.500;7.764;2023-04-25T08:57:16;16.80;;;9.73;;
7432;SDS011;32233;49.500;7.764;2023-04-25T08:59:45;15.30;;;9.03;;
7432;SDS011;32233;49.500;7.764;2023-04-25T09:02:13;17.17;;;10.07;;
7432;SDS011;32233;49.500;7.764;2023-04-25T09:04:45;16.87;;;9.43;;
7432;SDS011;32233;49.500;7.764;2023-04-25T09:07:12;18.13;;;10.70;;
7432;SDS011;32233;49.500;7.764;2023-04-25T09:09:38;19.13;;;10.23;;
7432;SDS011;32233;49.500;7.764;2023-04-25T09:12:05;20.03;;;10.93;;
7432;SDS011;32233;49.500;7.764;2023-04-25T09:14:32;15.43;;;10.23;;
7432;SDS011;32233;49.500;7.764;2023-04-25T09:17:06;18.57;;;9.90;;
7432;SDS011;32233;49.500;7.764;2023-04-25T09:19:42;20.83;;;10.40;;
7432;SDS011;32233;49.500;7.764;2023-04-25T09:22:16;16.93;;;9.70;;
7432;SDS011;32233;49.500;7.764;2023-04-25T09:24:44;17.00;;;9.97;;
7432;SDS011;32233;49.500;7.764;2023-04-25T09:27:17;17.33;;;10.17;;
7432;SDS011;32233;49.500;7.764;2023-04-25T09:29:47;15.47;;;9.37;;
7432;SDS011;32233;49.500;7.764;2023-04-25T09:32:16;15.13;;;9.23;;
7432;SDS011;32233;49.500;7.764;2023-04-25T09:34:50;17.67;;;9.00;;
7432;SDS011;32233;49.500;7.764;2023-04-25T09:37:20;13.27;;;8.10;;
7432;SDS011;32233;49.500;7.764;2023-04-25T09:40:07;13.13;;;8.40;;
7432;SDS011;32233;49.500;7.764;2023-04-25T09:42:47;15.47;;;8.17;;
7432;SDS011;32233;49.500;7.764;2023-04-25T09:45:14;14.30;;;8.20;;
7432;SDS011;32233;49.500;7.764;2023-04-25T09:47:43;14.63;;;8.07;;
7432;SDS011;32233;49.500;7.764;2023-04-25T09:50:16;16.47;;;7.20;;
7432;SDS011;32233;49.500;7.764;2023-04-25T09:52:50;14.73;;;7.77;;
7432;SDS011;32233;49.500;7.764;2023-04-25T09:55:35;12.07;;;6.87;;
7432;SDS011;32233;49.500;7.764;2023-04-25T09:58:06;10.63;;;7.07;;
7432;SDS011;32233;49.500;7.764;2023-04-25T10:00:36;13.87;;;7.23;;
7432;SDS011;32233;49.500;7.764;2023-04-25T10:03:18;12.47;;;7.40;;
7432;SDS011;32233;49.500;7.764;2023-04-25T10:06:09;11.97;;;6.30;;
7432;SDS011;32233;49.500;7.764;2023-04-25T10:08:39;13.67;;;6.77;;
7432;SDS011;32233;49.500;7.764;2023-04-25T10:11:07;15.57;;;6.90;;
7432;SDS011;32233;49.500;7.764;2023-04-25T10:13:35;11.90;;;6.57;;
7432;SDS011;32233;49.500;7.764;2023-04-25T10:16:02;9.33;;;5.87;;
7432;SDS011;32233;49.500;7.764;2023-04-25T10:18:31;8.23;;;6.17;;
7432;SDS011;32233;49.500;7.764;2023-04-25T10:21:01;6.10;;;4.70;;
7432;SDS011;32233;49.500;7.764;2023-04-25T10:23:31;8.20;;;4.53;;
7432;SDS011;32233;49.500;7.764;2023-04-25T10:25:58;8.47;;;5.17;;
7432;SDS011;32233;49.500;7.764;2023-04-25T10:28:26;10.20;;;4.97;;
7432;SDS011;32233;49.500;7.764;2023-04-25T10:31:02;7.90;;;5.03;;
7432;SDS011;32233;49.500;7.764;2023-04-25T10:33:36;8.80;;;4.60;;
7432;SDS011;32233;49.500;7.764;2023-04-25T10:38:43;6.13;;;4.03;;
7432;SDS011;32233;49.500;7.764;2023-04-25T10:41:12;6.20;;;4.10;;
7432;SDS011;32233;49.500;7.764;2023-04-25T10:43:40;6.97;;;4.17;;
7432;SDS011;32233;49.500;7.764;2023-04-25T10:46:26;4.53;;;4.13;;
7432;SDS011;32233;49.500;7.764;2023-04-25T10:48:58;7.10;;;4.17;;
7432;SDS011;32233;49.500;7.764;2023-04-25T10:51:32;5.87;;;4.23;;
7432;SDS011;32233;49.500;7.764;2023-04-25T10:54:19;5.50;;;4.10;;
7432;SDS011;32233;49.500;7.764;2023-04-25T10:56:48;5.43;;;3.80;;
7432;SDS011;32233;49.500;7.764;2023-04-25T10:59:16;8.67;;;5.10;;
7432;SDS011;32233;49.500;7.764;2023-04-25T11:01:48;6.80;;;3.77;;
7432;SDS011;32233;49.500;7.764;2023-04-25T11:04:21;5.57;;;4.17;;
7432;SDS011;32233;49.500;7.764;2023-04-25T11:06:58;6.73;;;4.40;;
7432;SDS011;32233;49.500;7.764;2023-04-25T11:09:38;5.90;;;4.73;;
7432;SDS011;32233;49.500;7.764;2023-04-25T11:12:09;5.60;;;5.00;;
7432;SDS011;32233;49.500;7.764;2023-04-25T11:14:38;6.07;;;5.27;;
7432;SDS011;32233;49.500;7.764;2023-04-25T11:17:05;7.67;;;4.47;;
7432;SDS011;32233;49.500;7.764;2023-04-25T11:19:32;6.83;;;5.07;;
7432;SDS011;32233;49.500;7.764;2023-04-25T11:21:59;6.70;;;4.13;;
7432;SDS011;32233;49.500;7.764;2023-04-25T11:24:27;5.70;;;4.57;;
7432;SDS011;32233;49.500;7.764;2023-04-25T11:26:54;6.80;;;4.33;;
7432;SDS011;32233;49.500;7.764;2023-04-25T11:29:22;5.00;;;4.53;;
7432;SDS011;32233;49.500;7.764;2023-04-25T11:31:50;5.97;;;4.20;;
7432;SDS011;32233;49.500;7.764;2023-04-25T11:34:17;4.80;;;4.23;;
7432;SDS011;32233;49.500;7.764;2023-04-25T11:36:46;6.07;;;4.70;;
7432;SDS011;32233;49.500;7.764;2023-04-25T11:39:13;5.37;;;3.87;;
7432;SDS011;32233;49.500;7.764;2023-04-25T11:41:40;5.40;;;3.87;;
7432;SDS011;32233;49.500;7.764;2023-04-25T11:44:10;4.30;;;4.00;;
7432;SDS011;32233;49.500;7.764;2023-04-25T11:46:36;5.30;;;3.90;;
7432;SDS011;32233;49.500;7.764;2023-04-25T11:49:03;4.60;;;3.77;;
7432;SDS011;32233;49.500;7.764;2023-04-25T11:51:37;4.50;;;4.00;;
7432;SDS011;32233;49.500;7.764;2023-04-25T11:54:07;4.00;;;3.60;;
7432;SDS011;32233;49.500;7.764;2023-04-25T11:56:36;6.93;;;3.97;;
7432;SDS011;32233;49.500;7.764;2023-04-25T11:59:03;3.70;;;3.40;;
7432;SDS011;32233;49.500;7.764;2023-04-25T12:01:37;8.77;;;3.77;;
7432;SDS011;32233;49.500;7.764;2023-04-25T12:04:21;4.30;;;3.90;;
7432;SDS011;32233;49.500;7.764;2023-04-25T12:06:52;8.67;;;4.67;;
7432;SDS011;32233;49.500;7.764;2023-04-25T12:09:30;8.53;;;5.80;;
7432;SDS011;32233;49.500;7.764;2023-04-25T12:11:58;4.53;;;3.70;;
7432;SDS011;32233;49.500;7.764;2023-04-25T12:14:32;5.37;;;3.90;;
7432;SDS011;32233;49.500;7.764;2023-04-25T12:17:01;4.27;;;2.67;;
7432;SDS011;32233;49.500;7.764;2023-04-25T12:19:33;3.93;;;2.77;;
7432;SDS011;32233;49.500;7.764;2023-04-25T12:22:01;4.53;;;2.80;;
7432;SDS011;32233;49.500;7.764;2023-04-25T12:24:29;6.30;;;3.97;;
7432;SDS011;32233;49.500;7.764;2023-04-25T12:27:05;6.50;;;3.93;;
7432;SDS011;32233;49.500;7.764;2023-04-25T12:29:34;5.67;;;3.57;;
7432;SDS011;32233;49.500;7.764;2023-04-25T12:32:14;6.33;;;4.33;;
7432;SDS011;32233;49.500;7.764;2023-04-25T12:34:42;6.73;;;4.40;;
7432;SDS011;32233;49.500;7.764;2023-04-25T12:37:08;5.37;;;4.10;;
7432;SDS011;32233;49.500;7.764;2023-04-25T12:39:35;7.27;;;4.20;;
7432;SDS011;32233;49.500;7.764;2023-04-25T12:42:02;4.57;;;3.93;;
7432;SDS011;32233;49.500;7.764;2023-04-25T12:44:31;6.50;;;4.10;;
7432;SDS011;32233;49.500;7.764;2023-04-25T12:46:57;7.27;;;4.00;;
7432;SDS011;32233;49.500;7.764;2023-04-25T12:49:26;6.43;;;4.00;;
7432;SDS011;32233;49.500;7.764;2023-04-25T12:51:52;6.03;;;4.03;;
7432;SDS011;32233;49.500;7.764;2023-04-25T12:54:22;5.17;;;3.53;;
7432;SDS011;32233;49.500;7.764;2023-04-25T12:56:48;4.83;;;3.70;;
7432;SDS011;32233;49.500;7.764;2023-04-25T12:59:17;5.23;;;3.73;;
7432;SDS011;32233;49.500;7.764;2023-04-25T13:01:44;3.70;;;3.40;;
7432;SDS011;32233;49.500;7.764;2023-04-25T13:04:11;10.93;;;3.70;;
7432;SDS011;32233;49.500;7.764;2023-04-25T13:06:38;4.97;;;3.80;;
7432;SDS011;32233;49.500;7.764;2023-04-25T13:09:05;3.67;;;3.23;;
7432;SDS011;32233;49.500;7.764;2023-04-25T13:11:33;5.00;;;3.10;;
7432;SDS011;32233;49.500;7.764;2023-04-25T13:14:00;3.70;;;3.00;;
7432;SDS011;32233;49.500;7.764;2023-04-25T13:16:26;3.73;;;2.90;;
7432;SDS011;32233;49.500;7.764;2023-04-25T13:18:53;8.10;;;3.60;;
7432;SDS011;32233;49.500;7.764;2023-04-25T13:21:19;6.93;;;3.70;;
7432;SDS011;32233;49.500;7.764;2023-04-25T13:23:46;6.70;;;4.13;;
7432;SDS011;32233;49.500;7.764;2023-04-25T13:26:12;6.27;;;3.50;;
7432;SDS011;32233;49.500;7.764;2023-04-25T13:28:39;7.73;;;3.70;;
7432;SDS011;32233;49.500;7.764;2023-04-25T13:31:09;5.67;;;3.73;;
7432;SDS011;32233;49.500;7.764;2023-04-25T13:33:36;8.03;;;3.97;;
7432;SDS011;32233;49.500;7.764;2023-04-25T13:36:03;6.10;;;3.70;;
7432;SDS011;32233;49.500;7.764;2023-04-25T13:38:30;4.30;;;3.23;;
7432;SDS011;32233;49.500;7.764;2023-04-25T13:40:56;6.97;;;3.23;;
7432;SDS011;32233;49.500;7.764;2023-04-25T13:43:32;7.27;;;3.70;;
7432;SDS011;32233;49.500;7.764;2023-04-25T13:46:00;4.17;;;3.23;;
7432;SDS011;32233;49.500;7.764;2023-04-25T13:48:26;6.80;;;3.23;;
7432;SDS011;32233;49.500;7.764;2023-04-25T13:50:53;7.83;;;3.33;;
7432;SDS011;32233;49.500;7.764;2023-04-25T13:53:19;7.97;;;3.07;;
7432;SDS011;32233;49.500;7.764;2023-04-25T13:55:47;6.43;;;3.30;;
7432;SDS011;32233;49.500;7.764;2023-04-25T13:58:13;7.77;;;3.50;;
7432;SDS011;32233;49.500;7.764;2023-04-25T14:00:40;4.47;;;3.07;;
7432;SDS011;32233;49.500;7.764;2023-04-25T14:03:09;7.27;;;3.50;;
7432;SDS011;32233;49.500;7.764;2023-04-25T14:05:36;8.47;;;3.47;;
7432;SDS011;32233;49.500;7.764;2023-04-25T14:08:07;6.47;;;4.03;;
7432;SDS011;32233;49.500;7.764;2023-04-25T14:10:35;5.80;;;3.40;;
7432;SDS011;32233;49.500;7.764;2023-04-25T14:13:01;7.47;;;3.50;;
7432;SDS011;32233;49.500;7.764;2023-04-25T14:15:33;7.07;;;3.30;;
7432;SDS011;32233;49.500;7.764;2023-04-25T14:18:00;5.70;;;3.20;;
7432;SDS011;32233;49.500;7.764;2023-04-25T14:20:27;5.83;;;3.00;;
7432;SDS011;32233;49.500;7.764;2023-04-25T14:22:54;7.37;;;3.30;;
7432;SDS011;32233;49.500;7.764;2023-04-25T14:25:23;3.53;;;2.60;;
7432;SDS011;32233;49.500;7.764;2023-04-25T14:27:50;3.77;;;2.50;;
7432;SDS011;32233;49.500;7.764;2023-04-25T14:30:17;7.87;;;2.87;;
7432;SDS011;32233;49.500;7.764;2023-04-25T14:32:45;7.67;;;3.00;;
7432;SDS011;32233;49.500;7.764;2023-04-25T14:35:14;7.30;;;2.67;;
7432;SDS011;32233;49.500;7.764;2023-04-25T14:37:42;5.30;;;2.70;;
7432;SDS011;32233;49.500;7.764;2023-04-25T14:40:08;3.27;;;2.40;;
7432;SDS011;32233;49.500;7.764;2023-04-25T14:42:37;5.27;;;2.30;;
7432;SDS011;32233;49.500;7.764;2023-04-25T14:45:04;2.70;;;2.23;;
7432;SDS011;32233;49.500;7.764;2023-04-25T14:47:35;3.10;;;2.13;;
7432;SDS011;32233;49.500;7.764;2023-04-25T14:50:05;3.53;;;1.90;;
7432;SDS011;32233;49.500;7.764;2023-04-25T14:52:32;3.87;;;2.10;;
7432;SDS011;32233;49.500;7.764;2023-04-25T14:54:59;4.40;;;2.33;;
7432;SDS011;32233;49.500;7.764;2023-04-25T14:57:32;4.40;;;2.20;;
7432;SDS011;32233;49.500;7.764;2023-04-25T14:59:58;8.20;;;2.27;;
7432;SDS011;32233;49.500;7.764;2023-04-25T15:02:25;3.67;;;1.90;;